WXM80 ListenWXM80 Stop

You find our weather info also at:

UK Metoffice

WeatherCloud

Weather Underground

Northeastern Weather Network

AWEKAS

Citizen Weather Observer Program (CWOP)

HAMweather, WeatherForYou, PWS Weather


Weather Underground History page Text

Daily Summary for August 18, 2017 Units:  Metric    English   Both
« Previous Day
Next Day »
Daily Weekly Monthly Yearly Custom
  High: Low: Average:
Temperature: 29 °C 21.4 °C 25 °C
Dew Point: 26.2 °C 20.4 °C 23.7 °C
Humidity: 98 % 82 % 93 %
Wind Speed: 9.7 km/h 0 km/h 1.6 km/h
Wind Gust: 19.3 km/h - -
Wind:- - South
Pressure: 1013.4 hPa 1006 hPa -
Precipitation: 42.93 mm    
Historical Graphs
 
 
Tabular Data for August 18, 2017
Time Temperature Dew Point Pressure Wind Wind Speed Wind Gust Humidity Rainfall Rate (Hourly)
00:03 21.4 °C 20.4 °C 1013.4 hPa Calm   1.9 km/h 94 % 0 mm
00:08 21.6 °C 20.6 °C 1013.1 hPa SE 0.5 km/h 3.7 km/h 94 % 0 mm
00:13 21.7 °C 20.8 °C 1013.1 hPa SE 1.6 km/h 1.9 km/h 95 % 0 mm
00:18 21.8 °C 20.9 °C 1013.1 hPa SE 0.2 km/h 1.6 km/h 95 % 0 mm
00:24 21.9 °C 21.1 °C 1012.8 hPa SE 2.1 km/h 5.6 km/h 95 % 0 mm
00:29 21.9 °C 21.1 °C 1013.1 hPa Calm   1.9 km/h 95 % 0 mm
00:34 22.1 °C 21.2 °C 1013.1 hPa SE 0.5 km/h 1.9 km/h 95 % 0 mm
00:39 22.1 °C 21.2 °C 1013.1 hPa Calm     95 % 0 mm
00:44 22.2 °C 21.3 °C 1012.8 hPa Calm     95 % 0 mm
00:49 22.2 °C 21.4 °C 1012.8 hPa SE 0.3 km/h 5.6 km/h 95 % 0 mm
00:54 22.3 °C 21.4 °C 1012.8 hPa Calm   1.9 km/h 95 % 0 mm
00:59 22.3 °C 21.4 °C 1012.8 hPa Calm     95 % 0 mm
01:04 22.3 °C 21.5 °C 1012.4 hPa Calm   1.6 km/h 95 % 0 mm
01:09 22.3 °C 21.5 °C 1012.4 hPa SE 1 km/h 4.8 km/h 95 % 0 mm
01:14 22.4 °C 21.6 °C 1012.4 hPa Calm     95 % 0 mm
01:19 22.4 °C 21.6 °C 1012.4 hPa Calm   1.9 km/h 95 % 0 mm
01:24 22.5 °C 21.7 °C 1012.4 hPa SE 0.3 km/h 1.9 km/h 95 % 0 mm
01:29 22.6 °C 21.7 °C 1012.4 hPa SE 1.1 km/h 3.7 km/h 95 % 0 mm
01:35 22.6 °C 21.8 °C 1012.1 hPa SE 2.7 km/h 5.6 km/h 95 % 0 mm
01:40 22.7 °C 21.8 °C 1012.1 hPa SE 0.3 km/h 3.2 km/h 95 % 0 mm
01:44 22.7 °C 21.9 °C 1012.1 hPa SE 1.8 km/h 5.6 km/h 95 % 0 mm
01:49 22.8 °C 21.9 °C 1012.1 hPa SE 2.1 km/h 5.6 km/h 95 % 0 mm
01:54 22.8 °C 21.9 °C 1011.7 hPa SE 1.1 km/h 3.2 km/h 95 % 0 mm
01:59 22.8 °C 22 °C 1011.7 hPa Calm     95 % 0 mm
02:04 22.8 °C 22 °C 1011.7 hPa Calm   1.9 km/h 95 % 0 mm
02:09 22.8 °C 22 °C 1011.7 hPa Calm   3.7 km/h 95 % 0 mm
02:14 22.8 °C 22 °C 1011.7 hPa Calm     95 % 0 mm
02:19 22.8 °C 22 °C 1011.7 hPa SE 0.3 km/h   95 % 0 mm
02:24 22.9 °C 22.1 °C 1011.4 hPa SE 1 km/h 3.7 km/h 95 % 0 mm
02:29 22.9 °C 22.1 °C 1011.4 hPa SE 0.5 km/h 5.6 km/h 95 % 0 mm
02:34 23 °C 22.2 °C 1011.4 hPa SSE 4.2 km/h 11.1 km/h 95 % 0 mm
02:39 23.1 °C 22.2 °C 1011.4 hPa Calm     95 % 0 mm
02:45 23.1 °C 22.2 °C 1011.4 hPa Calm     95 % 0 mm
02:50 23.1 °C 22.2 °C 1011.4 hPa SE 0.8 km/h 3.7 km/h 95 % 0 mm
02:55 23.1 °C 22.3 °C 1011.4 hPa Calm     95 % 0 mm
03:00 23.2 °C 22.3 °C 1011.4 hPa Calm     95 % 0 mm
03:05 23.2 °C 22.3 °C 1011.4 hPa Calm     95 % 0 mm
03:10 23.2 °C 22.3 °C 1011.4 hPa Calm     95 % 0 mm
03:15 23.2 °C 22.3 °C 1011.4 hPa Calm     95 % 0 mm
03:20 23.2 °C 22.3 °C 1011.4 hPa Calm     95 % 0 mm
03:25 23.2 °C 22.3 °C 1011.4 hPa Calm     95 % 0 mm
03:30 23.2 °C 22.4 °C 1011.4 hPa SE 0.6 km/h 3.7 km/h 95 % 0 mm
03:35 23.2 °C 22.4 °C 1011.4 hPa Calm     95 % 0 mm
03:40 23.3 °C 22.4 °C 1011.4 hPa Calm     95 % 0 mm
03:45 23.3 °C 22.4 °C 1011.4 hPa Calm   1.9 km/h 95 % 0 mm
03:50 23.3 °C 22.5 °C 1011.1 hPa SE 1.1 km/h 5.6 km/h 95 % 0 mm
03:55 23.4 °C 22.6 °C 1011.1 hPa SE 0.3 km/h 1.9 km/h 95 % 0 mm
04:00 23.5 °C 22.7 °C 1011.1 hPa SSE 1.1 km/h 1.9 km/h 95 % 0 mm
04:05 23.6 °C 22.7 °C 1011.1 hPa Calm   1.9 km/h 95 % 0 mm
04:10 23.7 °C 22.7 °C 1011.1 hPa Calm   3.7 km/h 94 % 0 mm
04:15 23.7 °C 22.7 °C 1011.1 hPa Calm   1.9 km/h 94 % 0 mm
04:20 23.8 °C 22.8 °C 1011.1 hPa SSE 0.2 km/h 3.7 km/h 94 % 0 mm
04:25 23.8 °C 22.6 °C 1011.4 hPa SSE 0.2 km/h 3.2 km/h 93 % 0 mm
04:30 23.8 °C 22.6 °C 1011.1 hPa SSE 1.3 km/h 4.8 km/h 93 % 0 mm
04:35 23.9 °C 22.7 °C 1011.1 hPa SSE 1.3 km/h 4.8 km/h 93 % 0 mm
04:40 23.9 °C 22.7 °C 1011.1 hPa SSE 0.6 km/h 5.6 km/h 93 % 0 mm
04:45 24 °C 22.6 °C 1011.1 hPa SSE 1.3 km/h 3.7 km/h 92 % 0 mm
04:50 24 °C 22.6 °C 1011.1 hPa SSE 0.5 km/h 1.9 km/h 92 % 0 mm
04:55 24.1 °C 22.7 °C 1011.1 hPa SE 2.4 km/h 3.7 km/h 92 % 0 mm
05:00 24.1 °C 22.7 °C 1011.1 hPa SE 1 km/h 3.2 km/h 92 % 0 mm
05:05 24.1 °C 22.7 °C 1011.1 hPa SE 1.8 km/h 5.6 km/h 92 % 0 mm
05:10 24.1 °C 22.5 °C 1011.1 hPa SSE 0.2 km/h 3.7 km/h 91 % 0 mm
05:16 24.1 °C 22.6 °C 1011.1 hPa SE 1.6 km/h 9.7 km/h 91 % 0 mm
05:21 24.1 °C 22.6 °C 1010.7 hPa Calm   1.9 km/h 91 % 0 mm
05:26 24.1 °C 22.6 °C 1010.7 hPa SSE 0.3 km/h 1.9 km/h 91 % 0 mm
05:31 24.2 °C 22.6 °C 1010.7 hPa SSE 1.6 km/h 6.4 km/h 91 % 0 mm
05:36 24.2 °C 22.6 °C 1010.7 hPa SSE 2.6 km/h 5.6 km/h 91 % 0 mm
05:41 24.1 °C 22.6 °C 1010.7 hPa SE 1.6 km/h 5.6 km/h 91 % 0 mm
05:46 24.1 °C 22.6 °C 1010.7 hPa SE 1.6 km/h 8 km/h 91 % 0 mm
05:51 24.1 °C 22.6 °C 1010.7 hPa SE 8 km/h 14.5 km/h 91 % 0 mm
05:56 24.1 °C 22.6 °C 1010.7 hPa SE 3.2 km/h 12.9 km/h 91 % 0 mm
06:01 24.1 °C 22.6 °C 1010.7 hPa SE 1.6 km/h 9.3 km/h 91 % 0 mm
06:06 24.1 °C 22.4 °C 1010.7 hPa SSE 1.6 km/h 9.7 km/h 90 % 0 mm
06:11 24.1 °C 22.5 °C 1010.7 hPa SE 3.2 km/h 11.3 km/h 91 % 0 mm
06:16 24.1 °C 22.3 °C 1010.7 hPa SE 3.2 km/h 9.7 km/h 90 % 0 mm
06:21 24.1 °C 22.3 °C 1010.7 hPa Calm   8 km/h 90 % 0 mm
06:26 24.1 °C 22.3 °C 1010.7 hPa SE 1.6 km/h 8 km/h 90 % 0 mm
06:31 24.1 °C 22.3 °C 1010.7 hPa SE 1.6 km/h 11.3 km/h 90 % 0 mm
06:36 24.1 °C 22.3 °C 1010.7 hPa Calm   6.4 km/h 90 % 0 mm
06:41 24 °C 22.3 °C 1010.7 hPa Calm   9.7 km/h 90 % 0 mm
06:46 24.1 °C 22.3 °C 1010.7 hPa Calm   9.7 km/h 90 % 0 mm
06:51 24.1 °C 22.3 °C 1010.7 hPa SSE 1.6 km/h 8 km/h 90 % 0 mm
06:56 24.1 °C 22.3 °C 1011.1 hPa SSE 1.6 km/h 8 km/h 90 % 0 mm
07:01 24.1 °C 22.3 °C 1010.7 hPa SE 0.6 km/h 1.9 km/h 90 % 0 mm
07:06 24.1 °C 22.3 °C 1010.7 hPa SE 1.1 km/h 14.8 km/h 90 % 0 mm
07:11 24.1 °C 22.3 °C 1010.7 hPa South 3.2 km/h 6.4 km/h 90 % 0 mm
07:16 24.1 °C 22.4 °C 1010.7 hPa SE 0.3 km/h 1.9 km/h 90 % 0 mm
07:21 24.2 °C 22.4 °C 1010.7 hPa SSE 3.2 km/h 8 km/h 90 % 0 mm
07:26 24.2 °C 22.5 °C 1010.7 hPa SSE 4.8 km/h 7.4 km/h 90 % 0 mm
07:31 24.3 °C 22.6 °C 1010.4 hPa SSE 2.3 km/h 5.6 km/h 90 % 0 mm
07:36 24.3 °C 22.4 °C 1010.4 hPa Calm   1.9 km/h 89 % 0 mm
07:41 24.4 °C 22.4 °C 1010.4 hPa SSE 2.4 km/h 5.6 km/h 89 % 0 mm
07:46 24.4 °C 22.5 °C 1010.4 hPa SE 4 km/h 9.3 km/h 89 % 0 mm
07:51 24.5 °C 22.6 °C 1010.4 hPa South 3.7 km/h 7.4 km/h 89 % 0 mm
07:56 24.5 °C 22.6 °C 1010.4 hPa SSE 0.2 km/h 3.7 km/h 89 % 0 mm
08:01 24.5 °C 22.8 °C 1010.4 hPa ESE 1.6 km/h 8 km/h 90 % 0 mm
08:06 24.5 °C 22.8 °C 1010.4 hPa SSE 3.4 km/h 9.3 km/h 90 % 0 mm
08:07 24.5 °C 22.8 °C 1010.4 hPa SSE 2.7 km/h 9.3 km/h 90 % 0 mm
08:12 24.5 °C 22.8 °C 1010.4 hPa South 2.3 km/h 7.4 km/h 90 % 0 mm
08:17 24.6 °C 22.8 °C 1010.4 hPa Calm   3.7 km/h 90 % 0 mm
08:22 24.6 °C 23.1 °C 1010 hPa SE 0.3 km/h 5.6 km/h 91 % 0 mm
08:27 24.7 °C 22.9 °C 1010.4 hPa SE 0.8 km/h 3.7 km/h 90 % 0 mm
08:32 24.7 °C 23.1 °C 1010.4 hPa SSW 2.6 km/h 9.7 km/h 91 % 0 mm
08:37 24.7 °C 23.1 °C 1010.4 hPa WSW 1.3 km/h 5.6 km/h 91 % 0 mm
08:42 24.7 °C 23.1 °C 1010.4 hPa SSE 3.5 km/h 7.4 km/h 91 % 0.51 mm
08:47 24.6 °C 23.2 °C 1010.4 hPa WSW 0.6 km/h   92 % 0.76 mm
08:52 24.6 °C 23.2 °C 1010.4 hPa Calm   3.7 km/h 92 % 1.02 mm
08:57 24.6 °C 23.2 °C 1010 hPa Calm   1.9 km/h 92 % 2.03 mm
09:02 24.5 °C 23.1 °C 1010 hPa Calm   3.7 km/h 92 % 2.79 mm
09:07 24.4 °C 23.1 °C 1010.4 hPa Calm   1.9 km/h 92 % 3.3 mm
09:12 24.4 °C 23.1 °C 1010.4 hPa Calm     92 % 4.57 mm
09:17 24.4 °C 23 °C 1010.4 hPa Calm   1.9 km/h 92 % 6.6 mm
09:22 24.4 °C 23.2 °C 1010.7 hPa Calm     93 % 7.62 mm
09:27 24.3 °C 23.1 °C 1010 hPa SE 1.6 km/h 5.6 km/h 93 % 8.89 mm
09:32 24.2 °C 23.2 °C 1010 hPa ESE 1.1 km/h 3.7 km/h 94 % 24.89 mm
09:37 24.2 °C 23.2 °C 1010 hPa Calm     94 % 29.72 mm
09:42 24.1 °C 23.1 °C 1010 hPa SE 1.8 km/h 5.6 km/h 94 % 32.26 mm
09:43 24.1 °C 23.1 °C 1010 hPa SE 0.8 km/h 5.6 km/h 94 % 32.26 mm
09:48 24.1 °C 23.1 °C 1010 hPa South 1.6 km/h 5.6 km/h 94 % 33.53 mm
09:53 24.1 °C 23.3 °C 1010 hPa SSE 0.3 km/h 3.7 km/h 95 % 34.54 mm
09:58 24.1 °C 23.2 °C 1010 hPa SE 3.5 km/h 7.4 km/h 95 % 35.56 mm
10:03 24.1 °C 23.2 °C 1010 hPa SE 1 km/h 3.7 km/h 95 % 35.81 mm
10:08 24.1 °C 23.2 °C 1010 hPa SE 4.2 km/h 11.1 km/h 95 % 36.32 mm
10:13 24.1 °C 23.4 °C 1010 hPa SE 1.6 km/h 5.6 km/h 96 % 35.31 mm
10:18 24 °C 23.3 °C 1010 hPa SE 0.2 km/h 1.9 km/h 96 % 33.27 mm
10:23 24 °C 23.3 °C 1010 hPa Calm   1.9 km/h 96 % 32.51 mm
10:28 24 °C 23.3 °C 1010 hPa SE 1.1 km/h 1.9 km/h 96 % 26.42 mm
10:33 24.1 °C 23.4 °C 1010 hPa Calm     96 % 13.97 mm
10:39 24.1 °C 23.4 °C 1010 hPa Calm   1.9 km/h 96 % 9.91 mm
10:49 24.2 °C 23.6 °C 1009.7 hPa SSE 0.2 km/h 1.9 km/h 96 % 5.59 mm
10:54 24.3 °C 23.8 °C 1010 hPa SSE 1.1 km/h 3.7 km/h 97 % 4.83 mm
10:59 24.4 °C 23.9 °C 1010 hPa SW 1.6 km/h 7.4 km/h 97 % 2.54 mm
11:04 24.5 °C 24 °C 1010 hPa SSW 1 km/h 3.7 km/h 97 % 1.52 mm
11:09 24.6 °C 24.1 °C 1010 hPa SSW 0.2 km/h 1.9 km/h 97 % 0.51 mm
11:14 24.6 °C 24.1 °C 1009.7 hPa SSW 0.2 km/h 3.7 km/h 97 % 0.51 mm
11:19 24.8 °C 24.3 °C 1009.7 hPa West 0.6 km/h 3.7 km/h 97 % 0.51 mm
11:24 24.9 °C 24.4 °C 1009.7 hPa West 0.3 km/h 3.7 km/h 97 % 0.25 mm
11:29 25.1 °C 24.6 °C 1010 hPa SSW 3.7 km/h 7.4 km/h 97 % 0.25 mm
11:34 25.2 °C 24.7 °C 1010 hPa Calm     97 % 0.25 mm
11:39 25.2 °C 24.7 °C 1009.7 hPa SSW 0.5 km/h 3.2 km/h 97 % 0.25 mm
11:44 25.3 °C 24.8 °C 1009.7 hPa SW 0.6 km/h 5.6 km/h 97 % 0.25 mm
11:49 25.4 °C 24.9 °C 1009.4 hPa SW 0.6 km/h 3.7 km/h 97 % 0.25 mm
11:54 25.6 °C 25.1 °C 1009.4 hPa SSW 1.8 km/h 5.6 km/h 97 % 0.25 mm
11:59 25.6 °C 25.1 °C 1009.4 hPa SW 0.6 km/h 3.7 km/h 97 % 0.25 mm
12:04 25.6 °C 25.1 °C 1009.4 hPa West 0.6 km/h 4.8 km/h 97 % 0.25 mm
12:09 25.8 °C 25.3 °C 1009.4 hPa WSW 1.4 km/h 3.2 km/h 97 % 0.25 mm
12:14 26.3 °C 25.9 °C 1009 hPa SW 0.6 km/h 1.9 km/h 98 % 0 mm
12:19 26.4 °C 26.1 °C 1009 hPa SSW 1.1 km/h 5.6 km/h 98 % 0 mm
12:25 26.4 °C 25.9 °C 1009 hPa WSW 5.3 km/h 11.1 km/h 97 % 0 mm
12:30 26.4 °C 25.9 °C 1009 hPa South 2.3 km/h 5.6 km/h 97 % 0 mm
12:35 26.4 °C 25.9 °C 1009 hPa South 1 km/h 1.9 km/h 97 % 0 mm
12:40 26.3 °C 25.8 °C 1009 hPa SSW 1.1 km/h 7.4 km/h 97 % 0 mm
12:45 26.4 °C 25.9 °C 1009 hPa SW 1.8 km/h 5.6 km/h 97 % 0 mm
12:50 26.5 °C 26 °C 1009 hPa SW 4.7 km/h 5.6 km/h 97 % 0 mm
12:55 26.6 °C 26.1 °C 1009 hPa SSE 0.6 km/h 3.2 km/h 97 % 0 mm
13:00 26.6 °C 25.9 °C 1009 hPa SW 2.1 km/h 7.4 km/h 96 % 0 mm
13:05 26.6 °C 25.9 °C 1008.7 hPa SW 6.4 km/h 16.7 km/h 96 % 0 mm
13:10 26.7 °C 26.1 °C 1008.7 hPa South 3.7 km/h 7.4 km/h 96 % 0 mm
13:15 26.7 °C 25.8 °C 1008.7 hPa SSW 1.1 km/h 5.6 km/h 95 % 0 mm
13:20 26.9 °C 26.1 °C 1008.7 hPa WSW 2.9 km/h 5.6 km/h 95 % 0 mm
13:25 27.2 °C 26.1 °C 1008.7 hPa ESE 2.7 km/h 5.6 km/h 94 % 0 mm
13:30 27.3 °C 26.1 °C 1008.7 hPa WSW 3.9 km/h 11.1 km/h 93 % 0 mm
13:35 27.4 °C 26.2 °C 1008.7 hPa SSW 4.7 km/h 9.3 km/h 93 % 0 mm
13:40 27.4 °C 25.8 °C 1008.7 hPa WSW 5.5 km/h 9.7 km/h 91 % 0 mm
13:45 27.5 °C 25.9 °C 1008.4 hPa SSW 1.1 km/h 5.6 km/h 91 % 0 mm
13:50 27.4 °C 25.7 °C 1008.4 hPa SSW 1 km/h 5.6 km/h 90 % 0 mm
13:55 27.3 °C 25.3 °C 1008.4 hPa SSE 1.3 km/h 9.3 km/h 89 % 0 mm
14:00 27.3 °C 25.6 °C 1008.4 hPa SSW 2.3 km/h 5.6 km/h 90 % 0 mm
14:05 27.3 °C 25.5 °C 1008.4 hPa SW 2.4 km/h 7.4 km/h 90 % 0 mm
14:10 27.3 °C 25.5 °C 1008.4 hPa SW 5.5 km/h 14.5 km/h 90 % 0 mm
14:15 27.2 °C 25.4 °C 1008 hPa SSW 2.6 km/h 7.4 km/h 90 % 0 mm
14:20 27.3 °C 25.7 °C 1008.4 hPa SSW 0.2 km/h 7.4 km/h 91 % 0 mm
14:25 27.3 °C 25.5 °C 1008 hPa SW 0.6 km/h 5.6 km/h 90 % 0 mm
14:31 27.3 °C 25.5 °C 1008 hPa SW 3.2 km/h 9.7 km/h 90 % 0 mm
14:36 27.2 °C 25.2 °C 1008 hPa SSW 8 km/h 12.9 km/h 89 % 0 mm
14:41 27.2 °C 25.2 °C 1008 hPa SSW 3.2 km/h 12.9 km/h 89 % 0 mm
14:46 27.2 °C 25.2 °C 1008 hPa SSW 1.6 km/h 12.9 km/h 89 % 0 mm
14:51 27.2 °C 25.4 °C 1007.7 hPa SW 3.2 km/h 8 km/h 90 % 0 mm
14:56 27.2 °C 25.4 °C 1007.7 hPa SW 4.8 km/h 11.3 km/h 90 % 0 mm
15:01 27.3 °C 25.5 °C 1007.7 hPa SSW 3.4 km/h 9.3 km/h 90 % 0 mm
15:06 27.3 °C 25.5 °C 1007.7 hPa SW 8 km/h 14.5 km/h 90 % 0 mm
15:11 27.3 °C 25.6 °C 1007.7 hPa Calm   4.8 km/h 90 % 0 mm
15:16 27.5 °C 25.9 °C 1007.7 hPa South 1.6 km/h 6.4 km/h 91 % 0 mm
15:21 27.7 °C 26.1 °C 1007.3 hPa SSW 4.8 km/h 19.3 km/h 91 % 0 mm
15:26 27.9 °C 25.9 °C 1007.3 hPa SSW 3.9 km/h 6.4 km/h 89 % 0 mm
15:31 28.1 °C 25.7 °C 1007.3 hPa South 1.6 km/h 11.3 km/h 87 % 0 mm
15:36 28.2 °C 25.6 °C 1007.3 hPa South 1.6 km/h 19.3 km/h 86 % 0 mm
15:41 28.3 °C 25.9 °C 1007.3 hPa SSW 3.2 km/h 9.7 km/h 87 % 0 mm
15:46 28.5 °C 25.9 °C 1007 hPa SSW 4.8 km/h 11.3 km/h 86 % 0 mm
15:51 28.6 °C 25.8 °C 1007 hPa South 3.2 km/h 8 km/h 85 % 0 mm
15:56 28.8 °C 26 °C 1007 hPa SSW 9.7 km/h 19.3 km/h 85 % 0 mm
16:01 28.9 °C 25.9 °C 1007 hPa SSW 2.9 km/h 8 km/h 84 % 0 mm
16:06 29 °C 25.8 °C 1007 hPa SSW 7.4 km/h 14.5 km/h 83 % 0 mm
16:11 28.9 °C 25.6 °C 1007 hPa SSE 2.1 km/h 5.6 km/h 82 % 0 mm
16:16 28.9 °C 25.7 °C 1007 hPa WSW 3.7 km/h 9.3 km/h 83 % 0 mm
16:21 28.8 °C 25.7 °C 1006.7 hPa South 0.5 km/h 3.7 km/h 83 % 0 mm
16:26 28.7 °C 25.5 °C 1006.7 hPa SE 1.1 km/h 5.6 km/h 83 % 0 mm
16:31 28.4 °C 25.4 °C 1006.7 hPa South 1.3 km/h 5.6 km/h 84 % 0 mm
16:36 28.2 °C 25.4 °C 1006.7 hPa SW 3.1 km/h 5.6 km/h 85 % 0 mm
16:41 28 °C 25.2 °C 1006.7 hPa SSE 3.1 km/h 5.6 km/h 85 % 0 mm
16:46 27.8 °C 25.3 °C 1007 hPa SSW 1.3 km/h 6.4 km/h 86 % 0 mm
16:51 27.7 °C 25.1 °C 1006.7 hPa ESE 1.4 km/h 5.6 km/h 86 % 0 mm
16:56 27.4 °C 25.1 °C 1006.7 hPa SSE 3.5 km/h 6.4 km/h 87 % 0 mm
17:01 27.2 °C 25.1 °C 1006.7 hPa SE 0.6 km/h 3.7 km/h 88 % 0 mm
17:06 27.1 °C 24.9 °C 1007 hPa SW 3.4 km/h 7.4 km/h 88 % 0 mm
17:11 27.1 °C 25.1 °C 1006.7 hPa SSW 1.6 km/h 3.7 km/h 89 % 0 mm
17:16 26.9 °C 25 °C 1006.7 hPa South 3.7 km/h 7.4 km/h 89 % 0 mm
17:21 26.8 °C 24.9 °C 1006.7 hPa WSW 0.6 km/h 3.7 km/h 89 % 0 mm
17:26 26.7 °C 24.8 °C 1006.3 hPa South 4.2 km/h 5.6 km/h 89 % 0 mm
17:31 26.7 °C 24.9 °C 1006.7 hPa South 0.6 km/h 5.6 km/h 90 % 0 mm
17:36 26.6 °C 24.8 °C 1006.7 hPa South 1.6 km/h 5.6 km/h 90 % 0 mm
17:41 26.5 °C 24.7 °C 1006.7 hPa SSE 0.5 km/h 5.6 km/h 90 % 0 mm
17:46 26.4 °C 24.8 °C 1007 hPa SW 4 km/h 7.4 km/h 91 % 0 mm
17:51 26.4 °C 24.8 °C 1007.3 hPa ESE 1.6 km/h 5.6 km/h 91 % 0 mm
17:56 26.4 °C 24.8 °C 1007 hPa WSW 0.5 km/h 5.6 km/h 91 % 0 mm
18:01 26.3 °C 24.7 °C 1007 hPa South 0.6 km/h 5.6 km/h 91 % 0 mm
18:07 26.3 °C 24.7 °C 1007.3 hPa SW 3.1 km/h 5.6 km/h 91 % 0 mm
18:12 26.3 °C 24.7 °C 1007.3 hPa South 1.9 km/h 5.6 km/h 91 % 0 mm
18:17 26.2 °C 24.8 °C 1007.3 hPa South 1.9 km/h 5.6 km/h 92 % 0 mm
18:22 26.2 °C 24.8 °C 1007.3 hPa SSW 5.8 km/h 8 km/h 92 % 0 mm
18:27 26.2 °C 24.8 °C 1007.3 hPa South 9.2 km/h 14.8 km/h 92 % 0 mm
18:32 26.1 °C 24.7 °C 1007.7 hPa SSW 1.3 km/h 3.7 km/h 92 % 0 mm
18:37 26.1 °C 24.7 °C 1007.7 hPa SSE 0.8 km/h 3.7 km/h 92 % 0 mm
18:42 26.1 °C 24.7 °C 1007.7 hPa SE 1.4 km/h 5.6 km/h 92 % 0 mm
18:47 26 °C 24.6 °C 1007.3 hPa SSW 0.3 km/h 3.7 km/h 92 % 0 mm
18:48 26 °C 24.6 °C 1007.3 hPa SW 5.8 km/h 11.1 km/h 92 % 0 mm
18:53 26 °C 24.8 °C 1007.3 hPa SW 0.8 km/h 3.2 km/h 93 % 0 mm
18:58 25.9 °C 24.7 °C 1007.3 hPa SSE 0.8 km/h 3.7 km/h 93 % 0 mm
19:03 25.9 °C 24.7 °C 1007.3 hPa SW 2.7 km/h 4.8 km/h 93 % 0 mm
19:08 25.9 °C 24.7 °C 1007.3 hPa SE 0.5 km/h 5.6 km/h 93 % 0 mm
19:09 25.9 °C 24.7 °C 1007.3 hPa SE 1 km/h 3.7 km/h 93 % 0 mm
19:14 25.9 °C 24.7 °C 1007.3 hPa SSW 2.7 km/h 5.6 km/h 93 % 0 mm
19:19 25.9 °C 24.7 °C 1007.3 hPa Calm   1.9 km/h 93 % 0 mm
19:24 25.9 °C 24.7 °C 1007 hPa SSW 0.5 km/h 1.9 km/h 93 % 0 mm
19:30 25.9 °C 24.7 °C 1007 hPa South 3.7 km/h 7.4 km/h 93 % 0 mm
19:35 25.8 °C 24.8 °C 1006.7 hPa SSE 0.3 km/h 9.3 km/h 94 % 0 mm
19:40 25.8 °C 24.8 °C 1006.7 hPa SSE 0.2 km/h 3.7 km/h 94 % 0 mm
19:45 25.8 °C 24.8 °C 1006.7 hPa SSE 1.8 km/h 7.4 km/h 94 % 0.25 mm
19:50 25.8 °C 24.8 °C 1006.7 hPa SSE 1.8 km/h 5.6 km/h 94 % 0.51 mm
19:55 25.8 °C 24.7 °C 1007 hPa South 0.5 km/h 3.7 km/h 94 % 0.51 mm
20:00 25.8 °C 24.9 °C 1007 hPa South 0.3 km/h 1.9 km/h 95 % 0.76 mm
20:05 25.8 °C 24.9 °C 1007 hPa WNW 0.3 km/h 1.9 km/h 95 % 1.02 mm
20:10 25.8 °C 24.9 °C 1007 hPa SSE 2.1 km/h 5.6 km/h 95 % 1.27 mm
20:15 25.7 °C 24.8 °C 1006.7 hPa SSW 1 km/h 5.6 km/h 95 % 1.52 mm
20:20 25.7 °C 24.8 °C 1006.7 hPa WSW 0.5 km/h 3.7 km/h 95 % 1.52 mm
20:25 25.7 °C 24.8 °C 1006.3 hPa South 0.2 km/h 1.9 km/h 95 % 2.03 mm
20:30 25.6 °C 24.8 °C 1006.3 hPa SSE 0.3 km/h 1.9 km/h 95 % 2.03 mm
20:35 25.6 °C 24.7 °C 1006 hPa SE 0.8 km/h 5.6 km/h 95 % 2.29 mm
20:40 25.6 °C 24.7 °C 1006.3 hPa SW 0.8 km/h 5.6 km/h 95 % 2.29 mm
20:41 25.6 °C 24.7 °C 1006.3 hPa SW 0.2 km/h 3.7 km/h 95 % 2.29 mm
20:46 25.5 °C 24.8 °C 1006.3 hPa SW 0.3 km/h 1.9 km/h 96 % 2.03 mm
20:51 25.4 °C 24.8 °C 1006.3 hPa SSE 0.2 km/h 3.2 km/h 96 % 1.78 mm
20:56 25.4 °C 24.8 °C 1006 hPa SSE 1.9 km/h 5.6 km/h 96 % 1.52 mm
21:01 25.4 °C 24.7 °C 1006 hPa SSE 1 km/h 3.7 km/h 96 % 1.52 mm
21:06 25.4 °C 24.7 °C 1006 hPa SSE 0.3 km/h 1.9 km/h 96 % 1.27 mm
21:11 25.3 °C 24.7 °C 1006.3 hPa WSW 3.2 km/h 7.4 km/h 96 % 0.76 mm
21:16 25.3 °C 24.7 °C 1006.3 hPa South 2.7 km/h 6.4 km/h 96 % 0.76 mm
21:21 25.3 °C 24.7 °C 1006.3 hPa SSW 0.6 km/h 3.7 km/h 96 % 0.51 mm
21:26 25.3 °C 24.7 °C 1006.3 hPa SW 1.1 km/h 3.7 km/h 96 % 0.25 mm
21:31 25.3 °C 24.7 °C 1006.7 hPa SW 0.5 km/h 1.9 km/h 96 % 0.25 mm
21:36 25.3 °C 24.7 °C 1006.7 hPa South 0.2 km/h   96 % 0 mm
21:37 25.3 °C 24.7 °C 1006.7 hPa SSE 1.9 km/h 5.6 km/h 96 % 0 mm
21:42 25.3 °C 24.6 °C 1006.7 hPa SW 6.4 km/h 11.1 km/h 96 % 0 mm
21:47 25.3 °C 24.6 °C 1006.7 hPa East 1.6 km/h 5.6 km/h 96 % 0 mm
21:52 25.2 °C 24.5 °C 1006.7 hPa SW 0.8 km/h 5.6 km/h 96 % 0 mm
21:57 25.1 °C 24.4 °C 1006.7 hPa SSW 0.6 km/h 3.7 km/h 96 % 0 mm
22:02 25 °C 24.2 °C 1007 hPa WSW 4.7 km/h 11.1 km/h 95 % 0 mm
22:07 24.8 °C 23.9 °C 1007 hPa WSW 1 km/h 9.3 km/h 95 % 0 mm
22:13 24.6 °C 23.5 °C 1007 hPa SW 1.3 km/h 11.1 km/h 94 % 0 mm
22:18 24.4 °C 23.4 °C 1007 hPa SW 1.3 km/h 9.3 km/h 94 % 0 mm
22:23 24.3 °C 23.3 °C 1007 hPa SW 1 km/h 3.2 km/h 94 % 0 mm
22:28 24.2 °C 23.2 °C 1007 hPa SW 5 km/h 9.3 km/h 94 % 0 mm
22:33 24.1 °C 23.1 °C 1007 hPa WSW 7.1 km/h 11.1 km/h 94 % 0 mm
22:38 23.9 °C 22.9 °C 1007.3 hPa WSW 4.3 km/h 5.6 km/h 94 % 0 mm
22:43 23.8 °C 22.8 °C 1007.3 hPa SW 1.4 km/h 5.6 km/h 94 % 0 mm
22:48 23.8 °C 22.8 °C 1007.3 hPa Calm   5.6 km/h 94 % 0 mm
22:53 23.7 °C 22.7 °C 1007.3 hPa Calm   3.7 km/h 94 % 0 mm
22:59 23.7 °C 22.7 °C 1007 hPa Calm   1.6 km/h 94 % 0 mm
23:04 23.7 °C 22.7 °C 1007.3 hPa Calm     94 % 0 mm
23:09 23.6 °C 22.6 °C 1007.3 hPa Calm     94 % 0 mm
23:14 23.6 °C 22.6 °C 1007.3 hPa WSW 1.8 km/h 6.4 km/h 94 % 0 mm
23:19 23.6 °C 22.6 °C 1007.3 hPa Calm     94 % 0 mm
23:22 23.5 °C 22.5 °C 1007.3 hPa Calm     94 % 0 mm
23:23 23.5 °C 22.5 °C 1007.3 hPa Calm     94 % 0 mm
23:25 23.5 °C 22.5 °C 1007.3 hPa Calm     94 % 0 mm
23:30 23.4 °C 22.4 °C 1007.3 hPa Calm     94 % 0 mm
23:35 23.4 °C 22.4 °C 1007.3 hPa Calm   1.9 km/h 94 % 0 mm
23:40 23.4 °C 22.4 °C 1007 hPa Calm     94 % 0 mm
23:45 23.3 °C 22.3 °C 1007.3 hPa Calm   1.9 km/h 94 % 0 mm
23:50 23.3 °C 22.3 °C 1007 hPa SW 1 km/h 6.4 km/h 94 % 0 mm
23:55 23.3 °C 22.4 °C 1007 hPa Calm     95 % 0 mm
Crab Meadow Weather
Compliments of Weather Underground - 3 mb

Script developed by  Jim McMurry - jmcmurry@mwt.net Adapted for the template by  Wim van der Kuil - Leuven-Template.eu

Weather Terms: Flood Warning (river flood)- A warning for specific communities or areas along a river where flooding is imminent or occurring. Flood warnings normally give specific crest forecasts.